EST,Max TemperatureF,Mean TemperatureF,Min TemperatureF,Max Dew PointF,MeanDew PointF,Min DewpointF,Max Humidity, Mean Humidity, Min Humidity, Max Sea Level PressureIn, Mean Sea Level PressureIn, Min Sea Level PressureIn, Max VisibilityMiles, Mean VisibilityMiles, Min VisibilityMiles, Max Wind SpeedMPH, Mean Wind SpeedMPH, Max Gust SpeedMPH,PrecipitationIn, CloudCover, Events, WindDirDegrees
2014-1-1,55,46,37,46,42,37,100,83,67,30.40,30.30,30.16,10,10,10,5,0,,0.00,5,Rain,77
2014-1-2,55,46,35,55,47,27,100,92,57,30.17,29.96,29.78,10,7,2,22,3,34,0.00,7,Rain,275
2014-1-3,42,34,26,28,20,16,93,59,34,30.43,30.32,30.07,10,10,10,20,11,32,0.00,0,,360
2014-1-4,44,36,28,34,27,19,80,68,60,30.45,30.36,30.22,10,10,10,9,5,,0.00,6,,60
2014-1-5,57,47,39,57,42,32,100,83,67,30.21,30.07,29.86,10,8,5,9,5,16,0.00,7,Rain,95
2014-1-6,60,40,21,61,29,5,100,69,38,30.45,30.12,29.81,10,9,5,21,12,29,0.00,3,Rain,302
2014-1-7,32,23,14,19,8,3,100,56,32,30.60,30.52,30.45,10,10,10,13,7,20,0.00,0,,310
2014-1-8,48,32,17,30,17,9,100,61,22,30.62,30.53,30.48,10,10,10,8,1,,0.00,1,,73
2014-1-9,62,50,37,45,32,19,93,57,39,30.51,30.44,30.36,10,10,10,10,4,,0.00,8,Rain,49
2014-1-10,53,50,46,54,50,45,100,99,93,30.36,30.20,30.07,10,4,0,8,3,,0.00,8,Fog-Rain-Thunderstorm,32
2014-1-11,71,61,51,68,59,39,100,92,58,30.06,29.89,29.77,10,8,0,22,6,37,0.00,6,Fog-Rain-Thunderstorm,234
2014-1-12,62,50,37,45,39,34,100,71,34,30.24,30.15,29.96,10,10,10,9,5,,0.00,0,,303
2014-1-13,64,48,32,52,40,32,100,79,34,30.22,30.11,29.93,10,10,2,9,2,,0.00,2,Rain,203
2014-1-14,64,50,37,55,47,36,100,83,34,30.05,29.95,29.85,10,9,2,13,3,20,0.00,3,Rain,293
2014-1-15,59,46,32,41,36,28,100,76,42,30.06,30.00,29.93,10,10,7,16,3,21,0.00,1,,301
2014-1-16,48,39,30,28,23,16,86,62,29,30.16,30.10,30.05,10,10,10,13,6,17,0.00,0,,281
2014-1-17,60,44,28,39,29,18,100,58,28,30.12,30.05,29.94,10,10,10,18,4,28,0.00,0,,259
2014-1-18,48,39,30,27,20,16,75,51,30,30.27,30.17,30.08,10,10,10,15,8,21,0.00,0,,269
2014-1-19,60,46,33,37,31,19,93,58,31,30.12,30.09,30.06,10,10,10,16,7,23,0.00,1,,258
2014-1-20,68,49,30,34,31,27,100,61,21,30.12,30.04,29.94,10,10,10,12,3,18,0.00,0,,253
2014-1-21,62,47,32,46,35,23,93,64,34,29.99,29.85,29.71,10,10,10,23,9,32,0.00,1,,282
2014-1-22,42,34,26,23,14,1,69,49,18,30.21,30.11,30.00,10,10,10,14,9,21,0.00,0,,302
2014-1-23,48,37,26,21,15,10,80,46,24,30.47,30.34,30.21,10,10,10,13,4,17,0.00,0,,321
2014-1-24,37,28,19,19,8,0,93,45,22,30.64,30.51,30.34,10,10,7,15,8,21,0.00,2,,3
2014-1-25,57,38,19,32,23,18,100,63,30,30.33,30.08,29.89,10,9,5,22,4,32,0.00,1,,258
2014-1-26,59,42,26,36,30,27,100,66,34,30.09,30.02,29.96,10,10,10,9,2,,0.00,0,,231
2014-1-27,64,53,42,55,47,36,100,82,64,30.03,29.97,29.91,10,9,2,14,3,17,0.00,5,Rain,276
2014-1-28,46,39,32,37,29,19,100,73,42,30.20,30.13,30.04,10,9,2,9,6,,0.00,8,Rain-Snow,26
2014-1-29,32,29,26,32,29,27,100,98,93,30.38,30.30,30.18,10,8,4,6,3,,0.00,7,Snow,351
2014-1-30,37,30,23,32,28,23,100,94,75,30.40,30.32,30.23,10,10,7,8,2,,0.00,0,,56
2014-1-31,57,39,21,36,29,19,100,84,38,30.29,30.22,30.17,10,10,0,5,1,,0.00,1,Fog,133